Current Weather

Aurora Muni

Aurora, Illinois (KARR)

Report from: Wednesday, September 28, 2022 2:52 AM CDT
Current time: Wednesday, September 28, 2022 3:58 AM CDT

Nearby weather
Weather history
Weather forecast

Temperature4.4°C (39.9°F)
Wind chill2.6°C (36.7°F)
Dew point3.3°C (37.9°F)
Winds 4 kts (2.1 m/s, 4.6 mph) Northwest (320°)
Visibility10 mi. (16.1 km)
Clouds Sky clear
Altimeter30.33 in.Hg (1027 mB)
Relative humidity93 %
Density altitude-1,638 ft. (-499 m)
Sea-level pressure102.7 kPa (1027 mB, 30.34 in.Hg)
Remarks Fully automated report
Automated weather observing station with precipitation discriminator
Flight conditions Visual Meteorological Conditions
Raw dataKARR 280752Z AUTO 32004KT 10SM CLR 04/03 A3033 RMK AO2 SLP274 T00440033
An error has occurred. This application may no longer respond until reloaded. Reload 🗙